createdAt,value
2018-09-13T00:00:39.706Z,10.20
2018-09-13T00:03:09.314Z,9.50
2018-09-13T00:05:38.931Z,7.93
2018-09-13T00:08:08.223Z,8.10
2018-09-13T00:10:37.829Z,8.53
2018-09-13T00:13:07.097Z,8.13
2018-09-13T00:15:36.747Z,7.73
2018-09-13T00:18:06.345Z,7.70
2018-09-13T00:20:35.606Z,7.80
2018-09-13T00:23:04.658Z,7.87
2018-09-13T00:25:34.246Z,7.43
2018-09-13T00:28:03.295Z,8.87
2018-09-13T00:30:32.251Z,7.72
2018-09-13T00:33:01.533Z,7.93
2018-09-13T00:35:31.199Z,8.05
2018-09-13T00:38:00.442Z,6.67
2018-09-13T00:40:29.761Z,6.20
2018-09-13T00:42:59.521Z,6.80
2018-09-13T00:45:29.275Z,6.40
2018-09-13T00:47:58.330Z,5.63
2018-09-13T00:50:27.585Z,5.63
2018-09-13T00:52:56.878Z,5.80
2018-09-13T00:55:26.465Z,5.17
2018-09-13T00:57:55.826Z,5.13
2018-09-13T01:00:25.094Z,5.12
2018-09-13T01:02:54.100Z,4.60
2018-09-13T01:05:23.973Z,5.07
2018-09-13T01:07:53.582Z,4.77
2018-09-13T01:10:22.598Z,5.13
2018-09-13T01:12:52.183Z,5.60
2018-09-13T01:15:21.790Z,4.53
2018-09-13T01:17:51.090Z,4.77
2018-09-13T01:20:20.171Z,4.80
2018-09-13T01:22:49.141Z,4.70
2018-09-13T01:25:18.082Z,4.80
2018-09-13T01:27:47.082Z,5.07
2018-09-13T01:30:16.671Z,5.83
2018-09-13T01:32:45.699Z,5.58
2018-09-13T01:35:15.582Z,5.67
2018-09-13T01:37:44.584Z,5.10
2018-09-13T01:40:13.586Z,5.33
2018-09-13T01:42:42.624Z,5.70
2018-09-13T01:45:11.563Z,5.80
2018-09-13T01:47:40.606Z,5.93
2018-09-13T01:50:10.010Z,5.53
2018-09-13T01:52:39.457Z,5.00
2018-09-13T01:55:08.917Z,5.63
2018-09-13T01:57:38.065Z,5.17
2018-09-13T02:00:07.663Z,4.90
2018-09-13T02:02:36.964Z,4.63
2018-09-13T02:05:06.572Z,5.90
2018-09-13T02:07:36.179Z,5.63
2018-09-13T02:10:05.786Z,5.43
2018-09-13T02:12:35.088Z,6.10
2018-09-13T02:15:04.694Z,5.90
2018-09-13T02:17:34.158Z,5.67
2018-09-13T02:20:03.822Z,5.57
2018-09-13T02:22:32.910Z,5.60
2018-09-13T02:25:01.974Z,5.07
2018-09-13T02:27:31.196Z,5.63
2018-09-13T02:30:00.203Z,5.57
2018-09-13T02:32:29.347Z,4.90
2018-09-13T02:34:58.746Z,5.83
2018-09-13T02:37:28.091Z,5.27
2018-09-13T02:39:57.114Z,5.63
2018-09-13T02:42:26.998Z,5.73
2018-09-13T02:44:56.016Z,5.70
2018-09-13T02:47:25.600Z,5.90
2018-09-13T02:49:54.901Z,5.53
2018-09-13T02:52:24.200Z,6.07
2018-09-13T02:54:53.310Z,5.87
2018-09-13T02:57:22.523Z,5.80
2018-09-13T02:59:51.549Z,5.57
2018-09-13T03:02:20.914Z,5.80
2018-09-13T03:04:50.144Z,5.50
2018-09-13T03:07:19.134Z,5.67
2018-09-13T03:09:48.086Z,6.17
2018-09-13T03:12:17.086Z,5.97
2018-09-13T03:14:46.246Z,6.63
2018-09-13T03:17:15.670Z,6.10
2018-09-13T03:19:44.969Z,6.47
2018-09-13T03:22:13.986Z,6.30
2018-09-13T03:24:42.974Z,6.63
2018-09-13T03:27:12.067Z,7.70
2018-09-13T03:29:41.374Z,6.53
2018-09-13T03:32:10.859Z,6.63
2018-09-13T03:34:39.865Z,6.90
2018-09-13T03:37:09.498Z,7.30
2018-09-13T03:39:38.513Z,8.00
2018-09-13T03:42:08.123Z,7.63
2018-09-13T03:44:37.666Z,8.05
2018-09-13T03:47:07.274Z,7.13
2018-09-13T03:49:36.310Z,7.73
2018-09-13T03:52:05.307Z,8.43
2018-09-13T03:54:34.590Z,8.77
2018-09-13T03:57:04.170Z,8.97
2018-09-13T03:59:33.303Z,9.67
2018-09-13T04:02:02.516Z,9.43
2018-09-13T04:04:32.114Z,9.20
2018-09-13T04:07:01.398Z,9.40
2018-09-13T04:09:30.675Z,8.50
2018-09-13T04:11:59.974Z,8.03
2018-09-13T04:14:29.888Z,9.97
2018-09-13T04:16:58.934Z,9.97
2018-09-13T04:19:33.402Z,9.27
2018-09-13T04:22:02.973Z,11.50
2018-09-13T04:24:32.036Z,10.30
2018-09-13T04:27:01.070Z,11.63
2018-09-13T04:29:30.605Z,12.57
2018-09-13T04:32:00.212Z,11.80
2018-09-13T04:34:29.535Z,13.07
2018-09-13T04:36:58.813Z,12.87
2018-09-13T04:39:28.192Z,11.63
2018-09-13T04:41:57.254Z,12.30
2018-09-13T04:44:26.661Z,12.47
2018-09-13T04:46:56.059Z,12.23
2018-09-13T04:49:25.939Z,11.50
2018-09-13T04:51:54.942Z,11.13
2018-09-13T04:54:24.698Z,12.67
2018-09-13T04:56:54.445Z,11.80
2018-09-13T04:59:23.914Z,12.37
2018-09-13T05:01:53.353Z,14.18
2018-09-13T05:04:22.501Z,13.53
2018-09-13T05:06:51.659Z,11.93
2018-09-13T05:09:21.114Z,12.10
2018-09-13T05:11:50.827Z,11.30
2018-09-13T05:14:19.866Z,12.40
2018-09-13T05:16:49.464Z,16.87
2018-09-13T05:19:19.071Z,21.10
2018-09-13T05:21:48.679Z,17.77
2018-09-13T05:24:17.880Z,18.00
2018-09-13T05:26:47.672Z,16.57
2018-09-13T05:29:17.261Z,13.10
2018-09-13T05:31:46.557Z,13.07
2018-09-13T05:34:16.063Z,12.17
2018-09-13T05:36:45.454Z,11.90
2018-09-13T05:39:15.002Z,24.40
2018-09-13T05:41:44.650Z,21.30
2018-09-13T05:44:14.841Z,14.07
2018-09-13T05:46:43.865Z,13.67
2018-09-13T05:49:13.442Z,11.33
2018-09-13T05:51:42.532Z,12.07
2018-09-13T05:54:11.734Z,9.80
2018-09-13T05:56:41.341Z,9.00
2018-09-13T05:59:10.422Z,9.00
2018-09-13T06:01:39.943Z,9.90
2018-09-13T06:04:08.994Z,9.60
2018-09-13T06:06:38.545Z,7.93
2018-09-13T06:09:08.186Z,9.07
2018-09-13T06:11:37.760Z,10.10
2018-09-13T06:14:07.135Z,8.90
2018-09-13T06:16:36.466Z,8.87
2018-09-13T06:19:05.731Z,9.23
2018-09-13T06:21:35.230Z,9.00
2018-09-13T06:24:04.286Z,9.57
2018-09-13T06:26:33.869Z,9.47
2018-09-13T06:29:03.170Z,24.73
2018-09-13T06:31:32.788Z,18.03
2018-09-13T06:34:02.387Z,13.80
2018-09-13T06:36:31.475Z,11.27
2018-09-13T06:39:00.425Z,9.10
2018-09-13T06:41:29.838Z,10.03
2018-09-13T06:43:58.990Z,9.47
2018-09-13T06:46:28.581Z,9.57
2018-09-13T06:48:57.946Z,10.08
2018-09-13T06:51:26.898Z,10.27
2018-09-13T06:53:55.886Z,9.70
2018-09-13T06:56:25.642Z,9.25
2018-09-13T06:58:54.801Z,10.95
2018-09-13T07:01:24.382Z,9.90
2018-09-13T07:03:53.990Z,9.70
2018-09-13T07:06:23.291Z,17.42
2018-09-13T07:08:52.722Z,20.65
2018-09-13T07:11:21.974Z,12.70
2018-09-13T07:13:51.302Z,11.35
2018-09-13T07:16:21.244Z,10.90
2018-09-13T07:18:50.431Z,11.28
2018-09-13T07:21:20.015Z,10.10
2018-09-13T07:23:49.347Z,15.32
2018-09-13T07:26:18.353Z,16.93
2018-09-13T07:28:47.318Z,22.32
2018-09-13T07:31:17.182Z,24.23
2018-09-13T07:33:46.597Z,24.43
2018-09-13T07:36:15.851Z,22.10
2018-09-13T07:38:45.173Z,20.82
2018-09-13T07:41:14.166Z,19.07
2018-09-13T07:43:50.698Z,20.62
2018-09-13T07:46:22.331Z,17.73
2018-09-13T07:48:56.632Z,16.73
2018-09-13T07:51:26.735Z,14.60
2018-09-13T07:53:57.061Z,13.80
2018-09-13T07:56:26.585Z,13.85
2018-09-13T07:58:55.835Z,13.70
2018-09-13T08:01:25.131Z,13.22
2018-09-13T08:03:54.522Z,8.93
2018-09-13T08:06:24.011Z,8.03
2018-09-13T08:08:53.360Z,7.17
2018-09-13T08:11:22.332Z,7.85
2018-09-13T08:13:51.912Z,6.95
2018-09-13T08:16:20.831Z,6.87
2018-09-13T08:18:50.644Z,6.67
2018-09-13T08:21:19.795Z,7.05
2018-09-13T08:23:51.167Z,7.58
2018-09-13T08:26:20.415Z,7.42
2018-09-13T08:28:49.559Z,6.90
2018-09-13T08:31:20.750Z,7.22
2018-09-13T08:33:50.002Z,7.83
2018-09-13T08:36:20.923Z,7.65
2018-09-13T08:38:50.953Z,7.80
2018-09-13T08:41:20.151Z,7.40
2018-09-13T08:43:49.971Z,7.33
2018-09-13T08:46:20.927Z,7.95
2018-09-13T08:48:51.710Z,7.30
2018-09-13T08:51:22.433Z,7.12
2018-09-13T08:53:52.187Z,7.10
2018-09-13T08:56:23.474Z,7.30
2018-09-13T08:58:52.947Z,6.62
2018-09-13T09:01:35.787Z,6.85
2018-09-13T09:04:08.711Z,6.83
2018-09-13T09:06:45.175Z,6.67
2018-09-13T09:09:14.699Z,7.70
2018-09-13T09:11:44.571Z,6.90
2018-09-13T09:14:14.667Z,7.65
2018-09-13T09:16:44.360Z,6.62
2018-09-13T09:19:21.705Z,6.80
2018-09-13T09:21:53.644Z,6.60
2018-09-13T09:24:25.595Z,6.72
2018-09-13T09:26:55.794Z,6.60
2018-09-13T09:29:26.716Z,6.10
2018-09-13T09:31:57.527Z,6.53
2018-09-13T09:34:27.126Z,6.40
2018-09-13T09:36:57.520Z,6.72
2018-09-13T09:39:27.491Z,7.20
2018-09-13T09:41:57.027Z,6.67
2018-09-13T09:44:28.839Z,7.28
2018-09-13T09:46:58.439Z,7.92
2018-09-13T09:49:27.992Z,7.30
2018-09-13T09:51:57.513Z,7.47
2018-09-13T09:54:27.918Z,7.47
2018-09-13T09:56:58.572Z,7.47
2018-09-13T09:59:29.459Z,7.60
2018-09-13T10:02:07.410Z,8.30
2018-09-13T10:04:39.118Z,7.90
2018-09-13T10:07:13.095Z,8.58
2018-09-13T10:09:43.423Z,8.25
2018-09-13T10:12:16.239Z,8.70
2018-09-13T10:14:51.820Z,7.50
2018-09-13T10:17:26.726Z,7.78
2018-09-13T10:20:02.869Z,8.33
2018-09-13T10:22:37.749Z,7.73
2018-09-13T10:25:12.648Z,7.80
2018-09-13T10:27:47.909Z,7.53
2018-09-13T10:30:22.785Z,8.20
2018-09-13T10:38:40.218Z,7.67
2018-09-13T10:41:15.334Z,7.28
2018-09-13T10:43:49.622Z,7.20
2018-09-13T10:46:26.064Z,8.07
2018-09-13T10:49:02.294Z,6.83
2018-09-13T10:53:43.305Z,7.57
2018-09-13T10:56:13.465Z,7.60
2018-09-13T10:58:44.092Z,7.30
2018-09-13T11:01:13.985Z,6.90
2018-09-13T11:03:43.511Z,6.92
2018-09-13T11:06:23.135Z,6.47
2018-09-13T11:08:52.739Z,7.00
2018-09-13T11:11:24.538Z,6.80
2018-09-13T11:14:01.677Z,7.17
2018-09-13T11:16:34.375Z,6.40
2018-09-13T11:19:24.855Z,6.65
2018-09-13T11:22:02.774Z,6.70
2018-09-13T11:24:33.150Z,6.30
2018-09-13T11:27:12.025Z,6.23
2018-09-13T11:29:56.170Z,6.42
2018-09-13T11:32:30.290Z,6.42
2018-09-13T11:35:00.758Z,6.62
2018-09-13T11:37:31.445Z,7.37
2018-09-13T11:40:01.999Z,7.80
2018-09-13T11:42:33.441Z,8.05
2018-09-13T11:45:02.989Z,7.85
2018-09-13T11:47:32.549Z,7.55
2018-09-13T11:50:02.059Z,7.60
2018-09-13T11:52:32.103Z,7.90
2018-09-13T11:55:01.778Z,8.13
2018-09-13T11:57:31.361Z,8.00
2018-09-13T12:00:10.773Z,8.80
2018-09-13T12:02:44.152Z,7.90
2018-09-13T12:05:16.092Z,7.87
2018-09-13T12:07:48.296Z,7.35
2018-09-13T12:10:27.396Z,7.28
2018-09-13T12:12:58.820Z,7.33
2018-09-13T12:15:29.092Z,7.10
2018-09-13T12:17:59.229Z,7.22
2018-09-13T12:20:29.681Z,7.20
2018-09-13T12:22:59.407Z,7.75
2018-09-13T12:25:29.812Z,7.50
2018-09-13T12:28:01.211Z,7.85
2018-09-13T12:30:31.638Z,8.55
2018-09-13T12:33:01.499Z,8.85
2018-09-13T12:35:31.147Z,11.75
2018-09-13T12:38:00.679Z,10.10
2018-09-13T12:40:30.363Z,8.88
2018-09-13T12:43:00.392Z,9.10
2018-09-13T12:45:29.971Z,9.35
2018-09-13T12:47:59.532Z,9.58
2018-09-13T12:50:30.436Z,11.20
2018-09-13T12:53:00.028Z,9.58
2018-09-13T12:55:34.624Z,8.55
2018-09-13T12:58:04.726Z,8.40
2018-09-13T13:00:43.969Z,8.58
2018-09-13T13:03:18.377Z,8.23
2018-09-13T13:06:05.844Z,8.00
2018-09-13T13:08:35.730Z,8.13
2018-09-13T13:11:09.077Z,7.62
2018-09-13T13:13:38.718Z,7.65
2018-09-13T13:16:08.260Z,8.75
2018-09-13T13:18:41.424Z,8.28
2018-09-13T13:21:11.015Z,8.45
2018-09-13T13:23:40.715Z,7.58
2018-09-13T13:26:12.348Z,8.78
2018-09-13T13:28:41.976Z,8.20
2018-09-13T13:31:11.650Z,7.85
2018-09-13T13:33:43.439Z,8.88
2018-09-13T13:36:13.582Z,8.55
2018-09-13T13:38:43.776Z,8.40
2018-09-13T13:41:13.341Z,8.38
2018-09-13T13:43:42.901Z,7.70
2018-09-13T13:46:12.784Z,7.60
2018-09-13T13:48:42.364Z,7.70
2018-09-13T13:51:11.912Z,8.05
2018-09-13T13:53:42.091Z,8.20
2018-09-13T13:56:11.612Z,8.93
2018-09-13T13:58:41.484Z,6.95
2018-09-13T14:01:11.027Z,7.75
2018-09-13T14:03:40.563Z,7.22
2018-09-13T14:06:10.090Z,7.78
2018-09-13T14:08:40.215Z,8.73
2018-09-13T14:11:09.740Z,8.43
2018-09-13T14:13:39.387Z,7.70
2018-09-13T14:16:09.010Z,7.87
2018-09-13T14:18:38.876Z,8.38
2018-09-13T14:21:08.456Z,9.63
2018-09-13T14:23:37.951Z,8.75
2018-09-13T14:26:08.314Z,9.08
2018-09-13T14:28:37.872Z,8.83
2018-09-13T14:31:07.504Z,7.80
2018-09-13T14:33:37.092Z,8.73
2018-09-13T14:36:06.736Z,8.70
2018-09-13T14:38:36.882Z,8.70
2018-09-13T14:41:07.182Z,8.70
2018-09-13T14:43:37.121Z,9.28
2018-09-13T14:46:07.281Z,9.40
2018-09-13T14:48:36.918Z,9.28
2018-09-13T14:51:07.088Z,8.68
2018-09-13T14:53:36.623Z,9.33
2018-09-13T14:56:06.533Z,8.30
2018-09-13T14:58:37.271Z,9.18
2018-09-13T15:01:07.516Z,7.95
2018-09-13T15:03:37.335Z,7.90
2018-09-13T15:06:07.918Z,8.33
2018-09-13T15:08:38.036Z,8.25
2018-09-13T15:11:08.301Z,9.65
2018-09-13T15:13:38.472Z,11.28
2018-09-13T15:16:08.459Z,11.48
2018-09-13T15:18:38.668Z,10.63
2018-09-13T15:21:09.314Z,11.53
2018-09-13T15:23:38.925Z,10.40
2018-09-13T15:26:09.191Z,9.93
2018-09-13T15:28:41.439Z,10.55
2018-09-13T15:31:11.580Z,10.75
2018-09-13T15:33:41.792Z,12.10
2018-09-13T15:36:12.522Z,11.65
2018-09-13T15:38:43.252Z,12.25
2018-09-13T15:41:13.184Z,10.98
2018-09-13T15:43:43.961Z,10.30
2018-09-13T15:46:14.236Z,10.45
2018-09-13T15:48:45.323Z,10.40
2018-09-13T15:51:16.430Z,9.30
2018-09-13T15:53:46.619Z,9.73
2018-09-13T15:56:16.299Z,9.05
2018-09-13T15:58:46.911Z,9.50
2018-09-13T16:01:16.434Z,9.70
2018-09-13T18:57:36.808Z,7.35
2018-09-13T19:00:06.699Z,7.83
2018-09-13T19:02:37.808Z,7.40
2018-09-13T19:05:08.387Z,7.00
2018-09-13T19:07:38.163Z,9.10
2018-09-13T19:10:08.147Z,6.67
2018-09-13T19:12:38.744Z,6.67
2018-09-13T19:15:11.824Z,6.78
2018-09-13T19:17:42.164Z,7.58
2018-09-13T19:20:12.744Z,8.80
2018-09-13T19:22:42.694Z,7.47
2018-09-13T19:25:12.619Z,7.80
2018-09-13T19:27:42.546Z,7.62
2018-09-13T19:30:13.123Z,7.10
2018-09-13T19:32:43.344Z,7.58
2018-09-13T19:35:15.338Z,8.18
2018-09-13T19:37:49.205Z,7.97
2018-09-13T19:40:24.137Z,7.35
2018-09-13T19:42:57.585Z,8.45
2018-09-13T19:45:28.790Z,8.45
2018-09-13T19:48:03.422Z,8.48
2018-09-13T19:50:38.268Z,8.30
2018-09-13T19:53:08.427Z,8.88
2018-09-13T19:55:43.204Z,10.40
2018-09-13T19:58:21.297Z,9.53
2018-09-13T20:00:52.760Z,9.38
2018-09-13T20:03:24.721Z,9.43
2018-09-13T20:06:01.392Z,8.85
2018-09-13T20:08:33.189Z,8.58
2018-09-13T20:11:11.716Z,9.18
2018-09-13T20:13:47.404Z,9.03
2018-09-13T20:16:27.717Z,9.45
2018-09-13T20:18:58.310Z,8.58
2018-09-13T20:21:29.032Z,8.58
2018-09-13T20:23:59.631Z,8.45
2018-09-13T20:26:30.048Z,9.15
2018-09-13T20:29:01.370Z,8.33
2018-09-13T20:31:47.530Z,8.60
2018-09-13T20:34:22.668Z,9.40
2018-09-13T20:36:57.423Z,8.78
2018-09-13T20:39:28.156Z,9.28
2018-09-13T20:41:58.232Z,8.85
2018-09-13T20:44:36.383Z,8.33
2018-09-13T20:47:09.960Z,9.58
2018-09-13T20:49:40.111Z,8.48
2018-09-13T20:52:11.169Z,7.67
2018-09-13T20:54:40.959Z,9.00
2018-09-13T20:57:12.207Z,8.83
2018-09-13T20:59:42.567Z,8.23
2018-09-13T21:02:12.520Z,8.55
2018-09-13T21:04:42.674Z,8.35
2018-09-13T21:07:12.524Z,8.75
2018-09-13T21:09:43.811Z,8.70
2018-09-13T21:12:13.956Z,8.83
2018-09-13T21:14:48.518Z,8.15
2018-09-13T21:17:19.187Z,8.98
2018-09-13T21:19:50.439Z,9.15
2018-09-13T21:22:21.924Z,8.63
2018-09-13T21:24:52.471Z,8.70
2018-09-13T21:27:31.535Z,8.43
2018-09-13T21:30:01.221Z,8.20
2018-09-13T21:32:32.387Z,9.38
2018-09-13T21:35:05.002Z,8.05
2018-09-13T21:37:35.315Z,8.45
2018-09-13T21:40:10.771Z,8.73
2018-09-13T21:42:45.922Z,9.18
2018-09-13T21:45:16.006Z,10.03
2018-09-13T21:47:46.275Z,9.30
2018-09-13T21:50:16.734Z,8.40
2018-09-13T21:52:46.728Z,8.83
2018-09-13T21:55:24.976Z,9.38
2018-09-13T21:57:59.824Z,9.80
2018-09-13T22:00:31.836Z,9.83
2018-09-13T22:03:02.395Z,9.00
2018-09-13T22:05:32.215Z,9.73
2018-09-13T22:08:02.120Z,9.60
2018-09-13T22:10:31.793Z,9.83
2018-09-13T22:13:01.679Z,9.15
2018-09-13T22:15:32.347Z,9.03
2018-09-13T22:18:03.111Z,8.63
2018-09-13T22:20:32.993Z,9.63
2018-09-13T22:23:02.899Z,8.70
2018-09-13T22:25:32.822Z,9.48
2018-09-13T22:28:03.499Z,8.90
2018-09-13T22:30:33.576Z,8.30
2018-09-13T22:33:03.636Z,8.78
2018-09-13T22:35:33.367Z,9.20
2018-09-13T22:38:03.014Z,9.13
2018-09-13T22:40:33.270Z,9.45
2018-09-13T22:43:03.804Z,9.10
2018-09-13T22:45:33.447Z,8.90
2018-09-13T22:48:03.763Z,8.85
2018-09-13T22:50:33.960Z,9.88
2018-09-13T22:53:04.642Z,9.83
2018-09-13T22:55:35.180Z,10.32
2018-09-13T22:58:05.099Z,10.13
2018-09-13T23:00:35.013Z,8.95
2018-09-13T23:03:05.684Z,9.08
2018-09-13T23:05:36.413Z,8.88
2018-09-13T23:08:07.053Z,8.60
2018-09-13T23:10:38.012Z,8.03
2018-09-13T23:13:07.623Z,9.18
2018-09-13T23:15:37.262Z,9.25
2018-09-13T23:18:06.842Z,8.93
2018-09-13T23:20:36.424Z,8.30
2018-09-13T23:23:06.095Z,8.05
2018-09-13T23:25:36.119Z,8.30
2018-09-13T23:28:06.405Z,8.35
2018-09-13T23:30:36.374Z,9.33
2018-09-13T23:33:06.633Z,8.68
2018-09-13T23:35:36.973Z,8.98
2018-09-13T23:38:06.819Z,8.38
2018-09-13T23:40:37.176Z,9.30
2018-09-13T23:43:07.904Z,10.87
2018-09-13T23:45:38.571Z,11.10
2018-09-13T23:48:08.447Z,12.05
2018-09-13T23:50:39.287Z,10.78
2018-09-13T23:53:10.015Z,10.20
2018-09-13T23:55:39.914Z,10.53
2018-09-13T23:58:09.455Z,9.65
